Time;durP1;ratioP1;P1;durP2;ratioP2;P2;SDS_P1;SDS_P2;PMS_P1;PMS_P2;Temp;Humidity;BMP_temperature;BMP_pressure;BME280_temperature;BME280_humidity;BME280_pressure;Samples;Min_cycle;Max_cycle;Signal;HPM_P1;HPM_P2
2022/05/30 00:00:40;;;;;;;25.42;7.60;;;;;;;8.16;100.00;97462.66;4944983;28;20046;-58
2022/05/30 00:03:06;;;;;;;22.55;5.93;;;;;;;8.91;100.00;97460.50;4942981;28;20430;-59
2022/05/30 00:05:33;;;;;;;22.65;6.85;;;;;;;8.13;100.00;97451.56;4946069;28;20036;-57
2022/05/30 00:07:59;;;;;;;18.67;5.95;;;;;;;8.52;100.00;97456.91;4944043;28;20114;-58
2022/05/30 00:10:25;;;;;;;21.08;7.10;;;;;;;8.57;100.00;97447.16;4945732;28;20291;-59
2022/05/30 00:12:50;;;;;;;23.30;6.35;;;;;;;8.67;100.00;97453.69;4946052;28;20628;-59
2022/05/30 00:15:18;;;;;;;30.33;8.02;;;;;;;8.00;100.00;97443.41;4942436;28;20024;-57
2022/05/30 00:17:44;;;;;;;23.27;7.22;;;;;;;7.80;100.00;97450.22;4945095;28;20027;-58
2022/05/30 00:20:10;;;;;;;22.42;7.20;;;;;;;7.51;100.00;97461.69;4943503;28;20045;-58
2022/05/30 00:22:36;;;;;;;23.27;7.07;;;;;;;7.11;100.00;97466.59;4943056;28;20023;-58
2022/05/30 00:25:02;;;;;;;29.08;6.55;;;;;;;7.62;100.00;97456.94;4946449;28;20030;-57
2022/05/30 00:27:28;;;;;;;32.70;6.63;;;;;;;7.59;100.00;97456.22;4945080;28;20054;-58
2022/05/30 00:29:53;;;;;;;26.05;5.82;;;;;;;8.55;100.00;97446.38;4942923;28;20027;-59
2022/05/30 00:32:18;;;;;;;25.20;5.65;;;;;;;9.98;100.00;97450.44;4942282;28;20034;-56
2022/05/30 00:34:44;;;;;;;17.17;5.75;;;;;;;7.84;100.00;97441.38;4945909;28;20049;-60
2022/05/30 00:37:09;;;;;;;15.45;5.63;;;;;;;7.50;100.00;97447.03;4947653;28;20463;-57
2022/05/30 00:39:34;;;;;;;17.65;4.40;;;;;;;9.17;100.00;97443.75;4948221;28;20874;-58
2022/05/30 00:42:13;;;;;;;18.17;5.35;;;;;;;8.51;100.00;97439.63;4943611;28;20062;-58
2022/05/30 00:44:39;;;;;;;17.73;5.45;;;;;;;8.37;100.00;97439.31;4945370;28;20815;-59
2022/05/30 00:47:05;;;;;;;17.10;5.57;;;;;;;7.05;100.00;97446.06;4948232;28;20657;-57
2022/05/30 00:49:31;;;;;;;19.77;6.10;;;;;;;7.02;100.00;97451.38;4946688;28;20674;-58
2022/05/30 00:51:58;;;;;;;20.67;6.22;;;;;;;7.09;100.00;97452.81;4946052;28;20154;-57
2022/05/30 00:54:34;;;;;;;30.20;6.10;;;;;;;7.36;100.00;97438.91;4946697;28;20033;-58
2022/05/30 00:57:19;;;;;;;19.08;6.25;;;;;;;6.99;100.00;97440.25;4948625;28;20126;-58
2022/05/30 00:59:48;;;;;;;19.83;6.13;;;;;;;7.15;100.00;97436.22;4945671;28;20670;-57
2022/05/30 01:02:14;;;;;;;21.98;6.18;;;;;;;6.97;100.00;97440.31;4945711;28;20560;-58
2022/05/30 01:07:24;;;;;;;19.38;6.03;;;;;;;7.35;100.00;97432.88;4946990;28;20046;-57
2022/05/30 01:09:50;;;;;;;21.05;6.18;;;;;;;7.24;100.00;97435.00;4946866;28;20018;-57
2022/05/30 01:12:16;;;;;;;18.95;5.82;;;;;;;6.91;100.00;97428.41;4945592;28;20051;-56
2022/05/30 01:14:43;;;;;;;19.48;5.85;;;;;;;6.95;100.00;97427.41;4947598;28;20026;-57
2022/05/30 01:17:13;;;;;;;25.05;6.82;;;;;;;6.85;100.00;97425.19;4951141;28;20039;-59
2022/05/30 01:19:58;;;;;;;22.30;6.47;;;;;;;7.16;100.00;97418.91;4949738;28;20034;-58
2022/05/30 01:23:01;;;;;;;18.77;5.60;;;;;;;6.86;100.00;97424.28;4950043;28;20042;-58
2022/05/30 01:25:33;;;;;;;17.38;5.85;;;;;;;6.95;100.00;97423.97;4952286;28;20066;-57
2022/05/30 01:28:17;;;;;;;;;;;;;;;6.91;100.00;97422.34;4952691;28;20027;-56
2022/05/30 01:30:42;;;;;;;20.42;6.10;;;;;;;6.88;100.00;97417.31;4950102;28;19918;-57
2022/05/30 01:33:08;;;;;;;21.30;5.75;;;;;;;7.31;100.00;97418.31;4952469;28;20033;-57
2022/05/30 01:35:33;;;;;;;17.65;5.60;;;;;;;7.12;100.00;97420.75;4950496;28;20098;-57
2022/05/30 01:37:59;;;;;;;21.65;5.28;;;;;;;7.13;100.00;97418.13;4952378;28;20305;-59
2022/05/30 01:40:26;;;;;;;15.73;5.25;;;;;;;6.79;100.00;97407.25;4946934;28;20050;-58
2022/05/30 01:42:52;;;;;;;20.77;5.18;;;;;;;7.31;100.00;97406.19;4950563;28;20027;-58
2022/05/30 01:45:18;;;;;;;21.58;5.78;;;;;;;6.89;100.00;97399.09;4951799;28;20023;-58
2022/05/30 01:47:43;;;;;;;16.63;5.05;;;;;;;7.35;100.00;97404.31;4951992;28;20023;-57
2022/05/30 01:50:09;;;;;;;29.45;6.72;;;;;;;7.17;100.00;97402.41;4949641;28;20460;-59
2022/05/30 01:52:36;;;;;;;21.23;5.97;;;;;;;7.16;100.00;97395.56;4951071;28;20027;-58
2022/05/30 01:55:01;;;;;;;18.33;5.38;;;;;;;6.71;100.00;97394.56;4949315;28;20026;-57
2022/05/30 01:57:26;;;;;;;19.95;5.90;;;;;;;6.79;100.00;97399.47;4965075;28;20047;-57
2022/05/30 01:59:52;;;;;;;20.50;5.30;;;;;;;8.17;100.00;97402.00;4947271;28;20031;-59
2022/05/30 02:02:17;;;;;;;17.10;4.70;;;;;;;8.82;100.00;97394.97;4951281;28;20942;-58
2022/05/30 02:04:42;;;;;;;15.15;4.40;;;;;;;8.35;100.00;97373.56;4952029;28;20417;-58
2022/05/30 02:07:08;;;;;;;16.40;4.43;;;;;;;7.55;100.00;97387.16;4950171;28;20047;-57
2022/05/30 02:09:33;;;;;;;16.02;5.32;;;;;;;7.48;100.00;97386.53;4950705;28;20033;-58
2022/05/30 02:11:59;;;;;;;18.23;5.57;;;;;;;6.94;100.00;97386.81;4948370;28;20043;-57
2022/05/30 02:14:25;;;;;;;19.10;5.10;;;;;;;7.85;100.00;97385.97;4952124;28;20514;-57
2022/05/30 02:17:04;;;;;;;11.55;3.47;;;;;;;7.68;100.00;97390.97;4950528;28;20062;-57
2022/05/30 02:19:41;;;;;;;16.58;4.50;;;;;;;7.79;100.00;97383.59;4950070;28;20449;-58
2022/05/30 02:22:09;;;;;;;18.05;5.10;;;;;;;7.54;100.00;97386.31;4951370;28;20130;-57
2022/05/30 02:24:36;;;;;;;15.18;4.50;;;;;;;7.09;100.00;97390.56;4950095;28;20548;-58
2022/05/30 02:27:02;;;;;;;17.20;4.80;;;;;;;8.14;100.00;97396.91;4948396;28;20716;-58
2022/05/30 02:29:27;;;;;;;14.70;4.50;;;;;;;7.81;100.00;97381.81;4947946;28;20555;-58
2022/05/30 02:31:52;;;;;;;12.95;4.68;;;;;;;6.78;100.00;97377.03;4950667;28;20042;-56
2022/05/30 02:37:01;;;;;;;19.83;5.55;;;;;;;5.51;100.00;97388.91;4949853;28;20050;-58
2022/05/30 02:39:28;;;;;;;17.70;5.65;;;;;;;5.35;100.00;97382.56;4949755;28;20023;-57
2022/05/30 02:41:54;;;;;;;19.10;5.68;;;;;;;5.36;100.00;97377.31;4947974;28;20034;-57
2022/05/30 02:44:21;;;;;;;20.00;5.57;;;;;;;5.77;100.00;97379.50;4948585;28;20038;-60
2022/05/30 02:46:48;;;;;;;22.33;6.28;;;;;;;5.56;100.00;97389.63;4964209;28;20197;-57
2022/05/30 02:49:14;;;;;;;18.83;5.78;;;;;;;5.80;100.00;97379.41;4949766;28;20121;-58
2022/05/30 02:51:39;;;;;;;25.58;6.05;;;;;;;5.80;100.00;97374.25;4948951;28;20377;-58
2022/05/30 02:54:05;;;;;;;23.58;6.82;;;;;;;5.64;100.00;97368.69;4949440;28;20534;-57
2022/05/30 02:56:30;;;;;;;23.15;5.80;;;;;;;5.92;100.00;97368.69;4949222;28;20035;-57
2022/05/30 02:59:00;;;;;;;18.17;5.85;;;;;;;5.62;100.00;97367.06;4948890;28;20031;-56
2022/05/30 03:01:25;;;;;;;16.52;5.60;;;;;;;5.74;100.00;97370.13;4949590;28;20046;-56
2022/05/30 03:03:51;;;;;;;23.60;6.35;;;;;;;5.61;100.00;97366.22;4950453;28;20093;-58
2022/05/30 03:06:17;;;;;;;20.42;5.93;;;;;;;5.67;100.00;97370.38;4949333;28;20086;-57
2022/05/30 03:08:43;;;;;;;19.83;4.53;;;;;;;7.81;100.00;97380.94;4950029;28;20038;-58
2022/05/30 03:11:10;;;;;;;21.88;5.78;;;;;;;7.06;100.00;97364.78;4949030;28;20030;-57
2022/05/30 03:13:36;;;;;;;19.63;4.80;;;;;;;6.66;100.00;97366.22;4948840;28;20055;-57
2022/05/30 03:16:02;;;;;;;19.35;5.68;;;;;;;5.68;100.00;97372.03;4965139;28;20062;-56
2022/05/30 03:18:27;;;;;;;20.55;5.20;;;;;;;5.81;100.00;97368.19;4951061;28;20540;-57
2022/05/30 03:20:52;;;;;;;14.05;4.22;;;;;;;6.12;100.00;97374.97;4947397;28;20042;-57
2022/05/30 03:23:18;;;;;;;16.70;4.68;;;;;;;7.13;100.00;97378.34;4949929;28;20074;-58
2022/05/30 03:25:43;;;;;;;16.40;5.53;;;;;;;5.60;100.00;97370.53;4951063;28;21060;-57
2022/05/30 03:28:08;;;;;;;21.00;6.00;;;;;;;5.69;100.00;97369.41;4947162;28;20042;-57
2022/05/30 03:30:37;;;;;;;19.65;5.07;;;;;;;5.98;100.00;97373.69;4947937;28;20041;-58
2022/05/30 03:33:04;;;;;;;21.10;5.85;;;;;;;6.00;100.00;97371.06;4950041;28;20101;-59
2022/05/30 03:35:30;;;;;;;18.15;5.35;;;;;;;6.18;100.00;97374.78;4947764;28;20626;-57
2022/05/30 03:37:55;;;;;;;19.17;4.68;;;;;;;6.89;100.00;97380.09;4948799;28;20057;-57
2022/05/30 03:40:21;;;;;;;20.02;5.78;;;;;;;6.24;100.00;97384.09;4946221;28;20019;-58
2022/05/30 03:42:46;;;;;;;14.80;4.72;;;;;;;5.90;100.00;97380.84;4946075;28;20127;-57
2022/05/30 03:45:13;;;;;;;21.00;5.05;;;;;;;6.56;100.00;97391.63;4945244;28;20035;-57
2022/05/30 03:47:41;;;;;;;19.90;4.88;;;;;;;7.32;100.00;97391.50;4948292;28;20059;-57
2022/05/30 03:50:09;;;;;;;20.70;4.88;;;;;;;7.07;100.00;97394.97;4946566;28;20039;-57
2022/05/30 03:52:34;;;;;;;18.02;4.25;;;;;;;9.27;100.00;97401.63;4948815;28;20038;-58
2022/05/30 03:55:05;;;;;;;16.42;4.57;;;;;;;8.10;100.00;97392.75;4947197;28;20027;-58
2022/05/30 03:57:31;;;;;;;17.05;4.45;;;;;;;8.16;100.00;97397.72;4928383;29;20039;-59
2022/05/30 03:59:56;;;;;;;22.17;5.13;;;;;;;8.77;100.00;97401.28;4928060;29;20074;-56
2022/05/30 04:02:21;;;;;;;21.80;5.88;;;;;;;7.19;100.00;97396.28;4927940;28;20122;-56
2022/05/30 04:04:47;;;;;;;16.25;5.47;;;;;;;6.72;100.00;97401.44;4928006;29;20023;-57
2022/05/30 04:07:12;;;;;;;15.23;5.20;;;;;;;7.32;100.00;97407.06;4927832;28;20035;-57
2022/05/30 04:09:38;;;;;;;22.77;6.35;;;;;;;6.55;100.00;97395.09;4928067;28;20048;-58
2022/05/30 04:12:04;;;;;;;22.20;5.95;;;;;;;6.35;100.00;97400.09;4927042;28;20049;-56
2022/05/30 04:14:31;;;;;;;19.48;6.07;;;;;;;6.00;100.00;97401.28;4928354;29;20035;-57
2022/05/30 04:16:56;;;;;;;18.20;5.35;;;;;;;6.40;100.00;97402.56;4927901;28;20464;-57
2022/05/30 04:19:22;;;;;;;18.67;5.68;;;;;;;6.44;100.00;97404.13;4927633;28;20521;-57
2022/05/30 04:21:47;;;;;;;16.45;5.38;;;;;;;6.92;100.00;97403.31;4928323;28;20038;-58
2022/05/30 04:24:12;;;;;;;16.42;5.20;;;;;;;7.32;100.00;97402.69;4929510;28;20492;-58
2022/05/30 04:26:39;;;;;;;17.10;5.18;;;;;;;7.52;100.00;97401.94;4929779;28;20701;-57
2022/05/30 04:29:05;;;;;;;18.42;5.68;;;;;;;7.16;100.00;97403.34;4930695;28;20070;-56
2022/05/30 04:31:30;;;;;;;21.10;5.88;;;;;;;8.06;100.00;97409.38;4926490;28;20170;-58
2022/05/30 04:33:56;;;;;;;15.25;4.53;;;;;;;8.02;100.00;97407.81;4930393;28;20375;-58
2022/05/30 04:36:21;;;;;;;16.00;5.03;;;;;;;8.07;100.00;97406.72;4928775;28;20078;-57
2022/05/30 04:38:46;;;;;;;18.27;5.28;;;;;;;6.90;100.00;97418.09;4928019;28;20569;-56
2022/05/30 04:41:12;;;;;;;18.20;5.18;;;;;;;7.97;100.00;97420.13;4927690;28;20048;-58
2022/05/30 04:43:37;;;;;;;14.88;5.10;;;;;;;7.96;100.00;97421.91;4928416;29;20038;-56
2022/05/30 04:46:04;;;;;;;16.60;5.38;;;;;;;8.67;100.00;97419.00;4927746;28;20608;-57
2022/05/30 04:48:30;;;;;;;15.75;5.55;;;;;;;8.52;100.00;97412.72;4929037;29;20653;-58
2022/05/30 04:50:55;;;;;;;14.00;5.03;;;;;;;9.25;100.00;97424.28;4925925;28;20863;-57
2022/05/30 04:53:20;;;;;;;17.02;5.55;;;;;;;8.51;100.00;97421.44;4929186;28;20136;-58
2022/05/30 04:55:46;;;;;;;24.35;9.35;;;;;;;9.70;100.00;97413.59;4928739;28;20103;-57
2022/05/30 04:58:11;;;;;;;20.85;6.38;;;;;;;13.30;100.00;97404.66;4927806;28;20111;-58
2022/05/30 05:00:36;;;;;;;16.55;5.38;;;;;;;13.48;100.00;97402.72;4927386;28;20051;-57
2022/05/30 05:03:02;;;;;;;15.48;5.13;;;;;;;13.87;100.00;97398.53;4929010;29;20698;-58
2022/05/30 05:05:27;;;;;;;12.90;4.75;;;;;;;14.75;100.00;97398.91;4929904;28;20035;-57
2022/05/30 05:08:15;;;;;;;13.57;4.80;;;;;;;15.38;100.00;97401.59;4927984;29;20027;-57
2022/05/30 05:10:47;;;;;;;12.07;4.15;;;;;;;15.52;100.00;97395.41;4928415;28;20540;-59
2022/05/30 05:13:13;;;;;;;;;;;;;;;17.56;100.00;97395.13;4929773;29;20040;-57
2022/05/30 05:15:38;;;;;;;10.23;4.10;;;;;;;17.30;100.00;97394.56;4931820;28;19926;-58
2022/05/30 05:18:04;;;;;;;9.07;3.70;;;;;;;16.07;100.00;97407.25;4928296;28;20035;-59
2022/05/30 05:20:29;;;;;;;14.82;4.63;;;;;;;13.49;100.00;97417.50;4926680;28;20039;-57
2022/05/30 05:22:55;;;;;;;11.68;3.90;;;;;;;15.56;100.00;97413.47;4928127;29;20023;-57
2022/05/30 05:25:21;;;;;;;11.43;4.18;;;;;;;13.88;100.00;97411.53;4926846;28;20035;-57
2022/05/30 05:27:49;;;;;;;11.48;5.00;;;;;;;14.18;100.00;97417.53;4927661;29;20043;-58
2022/05/30 05:30:14;;;;;;;10.32;4.60;;;;;;;16.37;100.00;97409.41;4926579;28;20114;-57
2022/05/30 05:32:40;;;;;;;12.07;5.10;;;;;;;16.15;100.00;97412.75;4928925;29;20042;-58
2022/05/30 05:35:05;;;;;;;11.40;4.22;;;;;;;21.53;71.63;97408.41;4926721;28;20031;-58
2022/05/30 05:37:33;;;;;;;10.43;4.32;;;;;;;21.17;65.44;97413.53;4923582;28;20027;-58
2022/05/30 05:39:58;;;;;;;13.65;4.70;;;;;;;22.70;59.54;97410.31;4924822;29;20024;-58
2022/05/30 05:42:24;;;;;;;8.63;3.78;;;;;;;23.25;53.71;97409.25;4928412;28;20078;-59
2022/05/30 05:44:49;;;;;;;7.57;3.90;;;;;;;22.90;53.97;97415.44;4927366;28;20023;-59
2022/05/30 05:47:14;;;;;;;7.93;3.80;;;;;;;23.39;51.53;97413.13;4927757;28;20282;-60
2022/05/30 05:49:40;;;;;;;8.13;4.10;;;;;;;23.46;48.90;97416.00;4930342;28;20034;-60
2022/05/30 05:52:05;;;;;;;7.38;4.10;;;;;;;24.84;48.95;97411.22;4926332;28;20043;-58
2022/05/30 05:54:31;;;;;;;8.50;3.88;;;;;;;23.09;51.03;97414.47;4928465;28;20038;-59
2022/05/30 05:56:58;;;;;;;5.90;2.85;;;;;;;24.30;48.64;97409.00;4924607;28;20043;-60
2022/05/30 05:59:23;;;;;;;7.20;3.80;;;;;;;21.02;59.60;97419.41;4925653;29;20024;-59
2022/05/30 06:01:48;;;;;;;8.70;3.60;;;;;;;22.95;54.25;97415.81;4924192;28;20044;-59
2022/05/30 06:04:14;;;;;;;7.40;3.53;;;;;;;22.49;54.59;97421.25;4932912;29;20027;-59
2022/05/30 06:06:39;;;;;;;7.25;3.53;;;;;;;21.60;54.29;97421.91;4961469;28;20039;-59
2022/05/30 06:09:06;;;;;;;8.32;3.60;;;;;;;24.68;48.11;97412.03;4932003;29;20452;-61
2022/05/30 06:11:32;;;;;;;6.93;3.88;;;;;;;21.39;53.50;97422.09;4931002;28;20044;-58
2022/05/30 06:13:58;;;;;;;8.88;3.70;;;;;;;25.04;49.10;97425.03;4931256;29;20032;-58
2022/05/30 06:16:33;;;;;;;7.82;3.80;;;;;;;23.45;49.22;97415.16;4932777;28;20161;-59
2022/05/30 06:19:02;;;;;;;6.28;3.20;;;;;;;24.57;50.59;97415.03;4930324;29;20050;-58
2022/05/30 06:21:29;;;;;;;8.18;4.10;;;;;;;25.70;47.19;97414.25;4961509;28;20040;-60
2022/05/30 06:23:55;;;;;;;7.03;3.55;;;;;;;23.74;46.36;97421.13;4930708;28;20074;-59
2022/05/30 06:26:22;;;;;;;6.45;3.20;;;;;;;25.41;45.92;97413.00;4930143;28;20047;-59
2022/05/30 06:28:47;;;;;;;7.95;3.40;;;;;;;24.05;47.13;97416.09;4926660;28;20048;-60
2022/05/30 06:31:14;;;;;;;5.68;3.63;;;;;;;23.86;45.72;97422.53;4929788;28;20240;-59
2022/05/30 06:33:40;;;;;;;7.15;3.38;;;;;;;24.77;46.70;97415.53;4928622;28;20810;-61
2022/05/30 06:36:08;;;;;;;6.05;3.70;;;;;;;25.49;44.69;97414.78;4930603;28;20058;-59
2022/05/30 06:38:34;;;;;;;7.20;3.35;;;;;;;25.69;43.07;97416.06;4928911;29;20084;-61
2022/05/30 06:41:16;;;;;;;8.88;3.28;;;;;;;25.52;44.49;97417.94;4928592;28;20937;-60
2022/05/30 06:43:43;;;;;;;7.35;3.50;;;;;;;23.62;47.61;97421.41;4930040;28;20034;-59
2022/05/30 06:46:10;;;;;;;6.25;3.40;;;;;;;24.34;46.76;97421.00;4930466;28;20158;-59
2022/05/30 06:48:36;;;;;;;6.68;3.58;;;;;;;25.98;43.41;97422.66;4929674;29;20039;-60
2022/05/30 06:51:08;;;;;;;8.68;3.10;;;;;;;26.13;43.03;97422.72;4928567;28;20102;-61
2022/05/30 06:53:33;;;;;;;8.18;3.30;;;;;;;23.01;47.25;97427.66;4929444;28;20031;-60
2022/05/30 06:56:00;;;;;;;6.95;3.80;;;;;;;22.61;48.90;97429.00;4929139;28;20074;-59
2022/05/30 06:58:26;;;;;;;6.68;3.30;;;;;;;26.90;42.16;97424.56;4929463;29;20858;-59
2022/05/30 07:00:52;;;;;;;7.85;3.40;;;;;;;24.64;45.16;97432.03;4929106;28;20063;-58
2022/05/30 07:03:17;;;;;;;6.03;3.17;;;;;;;25.37;44.40;97427.69;4930818;28;20043;-57
2022/05/30 07:05:45;;;;;;;6.35;3.63;;;;;;;25.37;44.23;97427.69;4930894;28;20196;-59
2022/05/30 07:08:12;;;;;;;6.75;3.38;;;;;;;23.82;44.90;97435.34;4932278;28;20030;-58
2022/05/30 07:10:39;;;;;;;7.63;3.88;;;;;;;23.62;48.68;97428.56;4929086;28;20046;-59
2022/05/30 07:13:05;;;;;;;4.90;2.90;;;;;;;25.67;43.34;97427.94;4928785;28;21017;-60
2022/05/30 07:15:34;;;;;;;6.55;3.30;;;;;;;27.45;42.98;97434.09;4928860;28;20097;-59
2022/05/30 07:18:05;;;;;;;5.97;3.33;;;;;;;27.53;40.25;97437.69;4930264;29;20030;-59
2022/05/30 07:20:31;;;;;;;6.00;3.17;;;;;;;27.24;39.17;97432.13;4930034;28;20035;-58
2022/05/30 07:22:56;;;;;;;7.43;2.95;;;;;;;26.28;40.81;97437.03;4929959;29;20028;-58
2022/05/30 07:25:21;;;;;;;6.18;2.85;;;;;;;27.39;40.57;97428.66;4929897;28;22674;-58
2022/05/30 07:27:46;;;;;;;6.47;2.90;;;;;;;28.56;37.70;97420.66;4928323;28;20027;-58
2022/05/30 07:30:12;;;;;;;6.60;3.08;;;;;;;26.26;41.11;97433.69;4926723;28;20291;-58
2022/05/30 07:32:37;;;;;;;7.72;3.15;;;;;;;25.75;43.84;97430.56;4928691;29;20032;-61
2022/05/30 07:35:03;;;;;;;6.25;2.72;;;;;;;28.07;39.13;97432.06;4929485;28;20524;-58
2022/05/30 07:37:29;;;;;;;6.97;3.08;;;;;;;26.38;42.27;97430.63;4930418;29;20040;-59
2022/05/30 07:39:55;;;;;;;9.27;3.58;;;;;;;23.90;43.31;97439.84;4928464;28;20117;-58
2022/05/30 07:42:20;;;;;;;8.60;2.97;;;;;;;26.97;40.80;97430.84;4927761;28;20101;-59
2022/05/30 07:44:46;;;;;;;7.03;2.92;;;;;;;25.08;44.42;97438.88;4929299;29;20499;-58
2022/05/30 07:47:11;;;;;;;6.88;3.00;;;;;;;25.53;42.96;97430.31;4927335;28;20384;-60
2022/05/30 07:49:37;;;;;;;6.65;2.80;;;;;;;24.58;41.75;97440.72;4928671;29;20027;-61
2022/05/30 07:52:03;;;;;;;5.63;3.20;;;;;;;26.77;42.01;97441.22;4928040;28;20137;-59
2022/05/30 07:54:29;;;;;;;5.95;2.67;;;;;;;28.32;37.56;97439.75;4928247;29;20028;-60
2022/05/30 07:56:54;;;;;;;5.75;2.65;;;;;;;27.10;39.26;97431.06;4928528;28;20070;-62
2022/05/30 07:59:20;;;;;;;4.32;2.35;;;;;;;28.89;36.65;97433.53;4928685;28;20394;-61
2022/05/30 08:01:46;;;;;;;4.03;2.10;;;;;;;26.43;38.44;97431.75;4926770;28;20977;-61
2022/05/30 08:04:14;;;;;;;4.77;2.00;;;;;;;28.02;35.63;97432.63;4931533;29;20123;-58
2022/05/30 08:06:40;;;;;;;3.72;2.10;;;;;;;26.83;38.58;97437.00;4928428;28;20370;-59
2022/05/30 08:09:05;;;;;;;6.03;2.30;;;;;;;26.86;39.24;97440.16;4928239;28;20713;-58
2022/05/30 08:11:31;;;;;;;7.70;2.35;;;;;;;25.62;37.49;97430.28;4927810;28;20039;-58
2022/05/30 08:13:56;;;;;;;6.07;2.17;;;;;;;27.54;35.83;97432.16;4928991;29;20491;-60
2022/05/30 08:16:24;;;;;;;4.50;2.13;;;;;;;26.92;38.28;97433.25;4931715;28;20086;-59
2022/05/30 08:18:49;;;;;;;4.03;2.17;;;;;;;25.65;40.30;97435.28;4926429;29;20035;-58
2022/05/30 08:21:15;;;;;;;6.85;2.28;;;;;;;28.27;36.21;97427.75;4927837;28;20047;-58
2022/05/30 08:23:42;;;;;;;4.07;1.90;;;;;;;28.22;35.98;97434.72;4930612;29;20061;-60
2022/05/30 08:26:07;;;;;;;5.38;2.33;;;;;;;28.69;35.65;97429.84;4928027;28;20142;-59
2022/05/30 08:28:34;;;;;;;6.43;2.65;;;;;;;24.46;40.54;97439.31;4928381;29;20031;-61
2022/05/30 08:30:59;;;;;;;8.43;2.63;;;;;;;24.72;41.36;97440.06;4926560;28;20035;-59
2022/05/30 08:33:25;;;;;;;5.82;2.60;;;;;;;20.62;44.79;97437.16;4928666;29;20847;-57
2022/05/30 08:36:09;;;;;;;6.78;2.78;;;;;;;24.26;42.31;97431.63;4943807;28;20540;-58
2022/05/30 08:38:37;;;;;;;7.78;2.80;;;;;;;25.56;42.62;97427.28;4929081;29;20032;-58
2022/05/30 08:43:50;;;;;;;7.57;2.67;;;;;;;27.04;37.07;97428.31;4929646;29;20097;-59
2022/05/30 08:46:31;;;;;;;6.10;2.70;;;;;;;26.39;37.94;97424.25;4927586;28;20146;-58
2022/05/30 08:48:59;;;;;;;7.38;2.80;;;;;;;26.69;38.69;97427.94;4927588;28;20307;-59
2022/05/30 08:51:52;;;;;;;8.57;3.20;;;;;;;27.81;35.40;97421.78;4926947;28;20052;-59
2022/05/30 08:55:01;;;;;;;7.28;2.90;;;;;;;27.48;35.11;97423.03;4925990;29;20158;-60
2022/05/30 08:57:36;;;;;;;6.90;2.63;;;;;;;23.49;37.65;97415.69;4929199;28;20211;-58
2022/05/30 09:00:23;;;;;;;7.35;3.22;;;;;;;28.19;31.47;97419.81;4927726;29;20054;-58
2022/05/30 09:03:08;;;;;;;7.93;2.92;;;;;;;28.39;32.33;97408.47;4949081;28;20516;-58
2022/05/30 09:05:38;;;;;;;9.18;2.80;;;;;;;26.14;35.76;97419.91;4947948;28;20175;-59
2022/05/30 09:08:10;;;;;;;9.32;2.58;;;;;;;27.02;36.26;97419.59;4946604;28;20085;-58
2022/05/30 09:10:42;;;;;;;8.20;2.67;;;;;;;23.95;36.06;97418.91;4944167;28;20126;-58
2022/05/30 09:13:25;;;;;;;6.78;2.55;;;;;;;22.13;39.14;97423.88;4946108;28;20035;-59
2022/05/30 09:16:04;;;;;;;8.68;2.90;;;;;;;23.33;36.99;97411.09;4963710;28;20508;-58
2022/05/30 09:18:45;;;;;;;8.85;2.55;;;;;;;22.86;37.17;97414.91;4946004;28;20154;-59
2022/05/30 09:21:11;;;;;;;6.63;2.60;;;;;;;21.45;39.12;97410.97;4946372;28;20039;-58
2022/05/30 09:23:37;;;;;;;7.00;2.75;;;;;;;23.12;37.02;97413.28;4948076;28;20058;-57
2022/05/30 09:26:07;;;;;;;6.35;2.53;;;;;;;24.44;35.37;97410.16;4946877;28;20039;-57
2022/05/30 09:28:47;;;;;;;6.80;2.78;;;;;;;23.91;34.48;97409.53;4947975;28;20031;-58
2022/05/30 09:31:24;;;;;;;7.72;2.70;;;;;;;24.00;34.02;97411.22;4947392;28;20049;-58
2022/05/30 09:33:53;;;;;;;8.10;2.55;;;;;;;23.41;34.30;97410.31;4945387;28;20026;-56
2022/05/30 09:36:27;;;;;;;7.28;2.72;;;;;;;26.11;32.78;97395.34;4945800;28;21029;-60
2022/05/30 09:39:02;;;;;;;9.02;2.92;;;;;;;24.93;35.21;97407.53;4949882;28;20034;-58
2022/05/30 09:41:46;;;;;;;8.43;3.20;;;;;;;24.64;34.07;97410.72;4949228;28;20039;-57
2022/05/30 09:44:18;;;;;;;6.88;2.85;;;;;;;24.69;32.58;97408.38;4952794;28;20253;-58
2022/05/30 09:46:51;;;;;;;8.75;2.67;;;;;;;26.22;31.31;97400.28;4948042;28;20065;-58
2022/05/30 09:49:23;;;;;;;7.82;2.92;;;;;;;26.08;31.10;97399.22;4950151;28;20023;-57
2022/05/30 09:52:00;;;;;;;6.82;2.78;;;;;;;26.99;32.19;97396.72;4950205;28;20563;-57
2022/05/30 09:54:25;;;;;;;6.35;2.33;;;;;;;27.65;30.59;97401.41;4951855;28;20023;-58
2022/05/30 09:57:12;;;;;;;5.63;2.50;;;;;;;26.60;31.25;97395.06;4949633;28;20906;-58
2022/05/30 09:59:41;;;;;;;6.03;2.40;;;;;;;26.75;32.87;97399.63;4951598;28;20075;-57
2022/05/30 10:02:31;;;;;;;6.20;2.45;;;;;;;26.45;32.38;97399.47;4950368;28;20775;-57
2022/05/30 10:05:19;;;;;;;6.55;2.67;;;;;;;27.46;33.35;97394.75;4949054;28;20046;-59
2022/05/30 10:07:53;;;;;;;6.68;2.53;;;;;;;26.15;33.50;97394.00;4948710;28;20046;-57
2022/05/30 10:10:21;;;;;;;5.72;2.60;;;;;;;28.13;36.47;97399.13;4948349;28;20035;-58
2022/05/30 10:12:57;;;;;;;5.53;2.30;;;;;;;26.05;34.51;97401.41;4949596;28;20042;-58
2022/05/30 10:15:42;;;;;;;7.72;2.60;;;;;;;26.47;31.63;97400.97;4950718;28;20030;-59
2022/05/30 10:18:13;;;;;;;7.63;2.58;;;;;;;25.53;32.35;97392.94;4948841;28;20182;-59
2022/05/30 10:20:50;;;;;;;5.47;2.40;;;;;;;26.09;33.21;97398.19;4947970;28;20050;-58
2022/05/30 10:29:41;;;;;;;8.43;3.20;;;;;;;23.11;35.59;97395.69;4950770;28;20832;-57
2022/05/30 10:32:17;;;;;;;8.23;2.70;;;;;;;24.37;32.97;97394.03;4948912;28;20247;-58
2022/05/30 10:35:27;;;;;;;9.57;2.90;;;;;;;24.40;33.33;97393.66;4949943;28;20635;-59
2022/05/30 10:38:16;;;;;;;7.90;2.50;;;;;;;22.84;36.05;97400.09;4949518;28;20098;-58
2022/05/30 10:40:57;;;;;;;11.32;3.42;;;;;;;21.55;39.14;97397.63;4949932;28;20137;-57
2022/05/30 10:43:47;;;;;;;7.30;2.78;;;;;;;21.04;41.14;97396.25;4950381;28;20067;-59
2022/05/30 10:46:21;;;;;;;9.52;3.10;;;;;;;22.50;40.09;97398.19;4950933;28;20114;-58
2022/05/30 10:49:12;;;;;;;9.05;3.08;;;;;;;23.98;36.51;97394.59;4948217;28;20059;-58
2022/05/30 10:52:02;;;;;;;8.20;2.95;;;;;;;24.43;35.28;97390.69;4946081;28;20509;-57
2022/05/30 10:54:48;;;;;;;7.93;2.72;;;;;;;26.42;33.19;97395.31;4949907;28;20091;-58
2022/05/30 10:57:39;;;;;;;8.00;2.80;;;;;;;24.77;36.49;97388.88;4949154;28;20039;-57
2022/05/30 11:00:15;;;;;;;10.95;3.20;;;;;;;23.88;33.04;97399.22;4949383;28;20019;-58
2022/05/30 11:03:03;;;;;;;8.43;2.83;;;;;;;24.61;33.52;97395.91;4948829;28;20110;-59
2022/05/30 11:05:51;;;;;;;7.47;2.75;;;;;;;23.61;33.52;97398.41;4947936;28;20045;-59
2022/05/30 11:08:34;;;;;;;6.95;2.63;;;;;;;22.16;33.94;97393.50;4949954;28;20023;-58
2022/05/30 11:11:14;;;;;;;8.30;3.03;;;;;;;22.82;35.80;97402.09;4947641;28;20046;-56
2022/05/30 11:13:55;;;;;;;6.78;2.60;;;;;;;24.82;36.38;97395.38;4947449;28;20041;-57
2022/05/30 11:16:57;;;;;;;6.55;2.58;;;;;;;25.12;35.26;97393.00;4947153;28;20105;-59
2022/05/30 11:19:50;;;;;;;8.43;2.70;;;;;;;24.99;33.59;97395.38;4950330;28;20065;-58
2022/05/30 11:22:18;;;;;;;7.38;2.90;;;;;;;22.05;34.16;97399.88;4949894;28;20109;-59
2022/05/30 11:24:50;;;;;;;6.75;2.72;;;;;;;21.67;36.77;97400.91;4948995;28;20022;-58
2022/05/30 11:27:21;;;;;;;7.93;3.05;;;;;;;21.06;35.67;97400.41;4946902;28;20146;-58
2022/05/30 11:29:49;;;;;;;13.15;3.05;;;;;;;23.35;36.53;97397.66;4947861;28;20150;-58
2022/05/30 11:32:41;;;;;;;7.82;2.60;;;;;;;23.25;36.66;97403.91;4949401;28;20495;-57
2022/05/30 11:35:28;;;;;;;8.27;2.70;;;;;;;23.10;37.21;97400.16;4946404;28;20078;-57
2022/05/30 11:38:07;;;;;;;7.80;2.70;;;;;;;23.85;35.95;97394.22;4949266;28;20256;-57
2022/05/30 11:40:49;;;;;;;6.90;2.55;;;;;;;23.63;36.49;97400.94;4948388;28;20035;-59
2022/05/30 11:43:45;;;;;;;8.63;2.65;;;;;;;22.56;36.51;97402.06;4950110;28;20035;-58
2022/05/30 11:46:29;;;;;;;9.52;3.20;;;;;;;21.37;34.51;97401.00;4947676;28;20042;-57
2022/05/30 11:49:05;;;;;;;11.27;2.80;;;;;;;20.07;35.55;97397.97;4948727;28;20026;-58
2022/05/30 11:51:57;;;;;;;10.65;3.13;;;;;;;22.95;33.46;97397.19;4946278;28;20130;-57
2022/05/30 11:54:41;;;;;;;8.02;2.60;;;;;;;23.70;31.93;97398.47;4948193;28;20063;-57
2022/05/30 11:57:19;;;;;;;8.10;2.60;;;;;;;24.34;36.61;97393.50;4947269;28;21067;-59